Time;durP1;ratioP1;P1;durP2;ratioP2;P2;SDS_P1;SDS_P2;PMS_P1;PMS_P2;Temp;Humidity;BMP_temperature;BMP_pressure;BME280_temperature;BME280_humidity;BME280_pressure;Samples;Min_cycle;Max_cycle;Signal;HPM_P1;HPM_P2
2022/03/07 00:01:41;;;;;;;3.60;0.50;;;24.20;99.90;;;;;;5002386;28;20022;-73
2022/03/07 00:04:08;;;;;;;1.58;0.47;;;24.10;99.90;;;;;;5008793;28;20089;-73
2022/03/07 00:06:36;;;;;;;1.42;0.22;;;24.10;99.90;;;;;;5006920;28;20436;-73
2022/03/07 00:09:03;;;;;;;2.60;0.47;;;24.00;99.90;;;;;;5006185;28;20309;-73
2022/03/07 00:11:30;;;;;;;2.80;0.50;;;24.00;99.90;;;;;;5001571;28;20030;-74
2022/03/07 00:13:58;;;;;;;3.83;0.70;;;24.00;99.90;;;;;;5006994;28;20030;-74
2022/03/07 00:16:25;;;;;;;1.73;0.47;;;24.00;99.90;;;;;;5011487;28;20049;-73
2022/03/07 00:18:52;;;;;;;1.52;0.50;;;24.00;99.90;;;;;;5013791;28;20038;-73
2022/03/07 00:21:21;;;;;;;1.58;0.38;;;24.10;99.90;;;;;;5009152;28;20030;-71
2022/03/07 00:23:49;;;;;;;0.77;0.40;;;24.10;99.90;;;;;;5004316;28;20472;-72
2022/03/07 00:26:18;;;;;;;1.92;0.65;;;24.00;99.90;;;;;;5009017;28;20376;-72
2022/03/07 00:28:47;;;;;;;1.45;0.57;;;24.00;99.90;;;;;;5012187;28;20030;-72
2022/03/07 00:31:15;;;;;;;5.13;0.50;;;24.00;99.90;;;;;;5007388;28;20026;-72
2022/03/07 00:33:44;;;;;;;2.45;1.17;;;24.00;99.90;;;;;;5013377;28;20052;-72
2022/03/07 00:36:11;;;;;;;4.53;0.75;;;24.10;99.90;;;;;;5012027;28;20061;-72
2022/03/07 00:38:38;;;;;;;2.58;0.70;;;24.00;99.90;;;;;;5013692;28;20033;-72
2022/03/07 00:41:07;;;;;;;2.85;0.75;;;23.80;99.90;;;;;;5005250;28;20509;-73
2022/03/07 00:43:35;;;;;;;2.70;0.93;;;23.60;99.90;;;;;;5013222;28;20539;-72
2022/03/07 00:46:03;;;;;;;2.72;1.33;;;23.40;99.90;;;;;;5003413;28;20132;-72
2022/03/07 00:48:30;;;;;;;1.67;0.68;;;23.30;99.90;;;;;;5001891;28;20116;-71
2022/03/07 00:50:58;;;;;;;1.20;0.60;;;23.20;99.90;;;;;;5007139;28;20034;-72
2022/03/07 00:53:27;;;;;;;1.60;0.60;;;23.10;99.90;;;;;;5007240;28;20029;-71
2022/03/07 00:55:56;;;;;;;5.68;0.90;;;22.90;99.90;;;;;;5006939;28;20030;-73
2022/03/07 00:58:24;;;;;;;2.45;1.40;;;22.60;99.90;;;;;;5010321;28;20136;-74
2022/03/07 01:00:51;;;;;;;3.28;0.95;;;22.50;99.90;;;;;;5006723;28;20387;-75
2022/03/07 01:03:19;;;;;;;3.08;1.13;;;22.50;99.90;;;;;;5008315;28;20034;-75
2022/03/07 01:05:47;;;;;;;4.15;1.40;;;22.70;99.90;;;;;;5007604;28;20483;-75
2022/03/07 01:08:14;;;;;;;3.22;0.95;;;22.80;99.90;;;;;;5004280;28;20506;-74
2022/03/07 01:10:42;;;;;;;6.97;1.20;;;22.90;99.90;;;;;;5003991;28;20556;-75
2022/03/07 01:13:10;;;;;;;6.57;1.63;;;23.00;99.90;;;;;;5000718;28;20056;-75
2022/03/07 01:15:37;;;;;;;4.32;0.88;;;23.10;99.90;;;;;;5005715;28;20493;-76
2022/03/07 01:18:05;;;;;;;5.97;1.60;;;23.20;99.90;;;;;;5012396;28;20472;-75
2022/03/07 01:20:33;;;;;;;3.25;1.33;;;23.30;99.90;;;;;;5011100;28;20073;-75
2022/03/07 01:23:00;;;;;;;5.95;1.65;;;23.40;99.90;;;;;;5006924;28;20022;-75
2022/03/07 01:25:28;;;;;;;7.07;1.20;;;23.40;99.90;;;;;;5007933;28;20038;-75
2022/03/07 01:27:56;;;;;;;5.40;1.60;;;23.50;99.90;;;;;;5010622;28;20045;-74
2022/03/07 01:30:23;;;;;;;4.75;1.40;;;23.70;99.90;;;;;;5009582;28;20022;-74
2022/03/07 01:32:53;;;;;;;4.30;1.05;;;23.80;99.90;;;;;;5004484;28;20687;-74
2022/03/07 01:35:21;;;;;;;4.72;1.85;;;23.90;99.90;;;;;;5002667;28;20018;-75
2022/03/07 01:37:49;;;;;;;5.50;1.60;;;23.90;99.90;;;;;;4997164;28;20034;-77
2022/03/07 01:40:16;;;;;;;10.13;2.13;;;24.10;99.90;;;;;;4994752;28;20155;-75
2022/03/07 01:42:43;;;;;;;5.88;1.90;;;24.20;99.90;;;;;;5006535;28;20026;-75
2022/03/07 01:45:16;;;;;;;4.85;1.73;;;24.30;99.90;;;;;;5000995;28;20531;-74
2022/03/07 01:47:44;;;;;;;4.80;2.03;;;24.40;99.90;;;;;;5004830;28;20033;-74
2022/03/07 01:50:13;;;;;;;9.57;2.55;;;24.50;99.90;;;;;;5013040;28;20026;-75
2022/03/07 01:52:44;;;;;;;4.43;1.50;;;24.50;99.90;;;;;;5010350;28;20558;-74
2022/03/07 01:55:13;;;;;;;4.20;1.20;;;24.50;99.90;;;;;;5011099;28;20069;-75
2022/03/07 01:57:42;;;;;;;4.65;1.38;;;24.50;99.90;;;;;;5007419;28;20029;-75
2022/03/07 02:00:16;;;;;;;7.85;1.50;;;24.50;99.90;;;;;;4997159;28;20104;-75
2022/03/07 02:02:44;;;;;;;7.13;2.05;;;24.40;99.90;;;;;;5005097;28;20117;-76
2022/03/07 02:05:13;;;;;;;7.43;1.58;;;24.40;99.90;;;;;;5004542;28;20737;-75
2022/03/07 02:07:40;;;;;;;3.40;0.90;;;24.40;99.90;;;;;;5001328;28;20434;-76
2022/03/07 02:10:10;;;;;;;1.25;0.82;;;24.40;99.90;;;;;;5003133;28;20140;-72
2022/03/07 02:12:37;;;;;;;1.83;0.40;;;24.40;99.90;;;;;;5005336;28;20044;-77
2022/03/07 02:15:07;;;;;;;3.30;0.77;;;24.30;99.90;;;;;;5007812;28;20045;-75
2022/03/07 02:17:35;;;;;;;0.70;0.30;;;24.30;99.90;;;;;;5008630;28;20030;-76
2022/03/07 02:20:04;;;;;;;2.63;0.40;;;24.20;99.90;;;;;;5001755;28;20038;-77
2022/03/07 02:22:31;;;;;;;0.43;0.30;;;24.20;99.90;;;;;;5003240;28;20026;-75
2022/03/07 02:24:59;;;;;;;1.95;0.45;;;24.20;99.90;;;;;;5000720;28;20122;-76
2022/03/07 02:27:26;;;;;;;1.85;0.30;;;24.20;99.90;;;;;;5003469;28;20026;-74
2022/03/07 02:29:53;;;;;;;0.63;0.20;;;24.30;99.90;;;;;;5005992;28;20088;-76
2022/03/07 02:32:22;;;;;;;0.40;0.20;;;24.50;99.90;;;;;;5007148;28;20022;-75
2022/03/07 02:34:49;;;;;;;2.25;0.50;;;24.60;99.90;;;;;;4999575;28;20038;-76
2022/03/07 02:37:17;;;;;;;0.47;0.20;;;24.60;99.90;;;;;;5001038;28;20507;-78
2022/03/07 02:39:44;;;;;;;0.80;0.40;;;24.70;99.90;;;;;;5006560;28;20467;-77
2022/03/07 02:42:15;;;;;;;1.75;0.52;;;25.00;99.90;;;;;;4994378;28;20022;-75
2022/03/07 02:44:42;;;;;;;1.00;0.30;;;25.20;99.90;;;;;;5007236;28;20065;-77
2022/03/07 02:47:14;;;;;;;0.63;0.25;;;25.50;99.90;;;;;;5001671;28;20046;-75
2022/03/07 02:49:42;;;;;;;1.05;0.40;;;25.80;99.90;;;;;;5002775;28;20065;-75
2022/03/07 02:52:10;;;;;;;0.60;0.20;;;26.00;99.90;;;;;;4997687;28;20037;-74
2022/03/07 02:54:38;;;;;;;0.82;0.50;;;26.30;99.90;;;;;;5010066;28;20546;-73
2022/03/07 02:57:06;;;;;;;1.67;0.55;;;26.50;99.90;;;;;;5008981;28;20091;-73
2022/03/07 02:59:35;;;;;;;0.80;0.30;;;26.60;99.90;;;;;;5003761;28;20038;-75
2022/03/07 03:02:02;;;;;;;0.30;0.20;;;26.70;99.90;;;;;;5000285;28;20141;-73
2022/03/07 03:04:29;;;;;;;0.70;0.38;;;26.60;99.90;;;;;;5001775;28;20033;-74
2022/03/07 03:06:57;;;;;;;2.20;0.30;;;26.50;99.90;;;;;;5004128;28;20032;-74
2022/03/07 03:09:24;;;;;;;2.50;0.43;;;26.20;99.90;;;;;;5000284;28;20033;-77
2022/03/07 03:11:51;;;;;;;2.50;0.60;;;26.00;99.90;;;;;;4999808;28;20518;-78
2022/03/07 03:14:19;;;;;;;2.03;1.05;;;25.90;99.90;;;;;;5001000;28;20157;-77
2022/03/07 03:16:46;;;;;;;3.20;0.38;;;25.70;99.90;;;;;;5000080;28;20030;-76
2022/03/07 03:19:14;;;;;;;1.77;0.40;;;25.60;99.90;;;;;;5000384;28;20498;-77
2022/03/07 03:21:41;;;;;;;1.63;0.47;;;25.50;99.90;;;;;;4998544;28;20037;-78
2022/03/07 03:24:09;;;;;;;0.68;0.30;;;25.40;99.90;;;;;;4998551;28;20066;-75
2022/03/07 03:26:37;;;;;;;1.25;0.57;;;25.40;99.90;;;;;;5000458;28;20694;-76
2022/03/07 03:29:04;;;;;;;1.85;0.43;;;25.50;99.90;;;;;;5000663;28;20030;-73
2022/03/07 03:31:31;;;;;;;4.40;0.52;;;25.50;99.90;;;;;;5000984;28;20511;-74
2022/03/07 03:33:59;;;;;;;2.42;0.60;;;25.50;99.90;;;;;;5005544;28;20038;-74
2022/03/07 03:36:26;;;;;;;4.00;0.60;;;25.60;99.90;;;;;;5008505;28;20499;-74
2022/03/07 03:38:53;;;;;;;2.00;0.60;;;25.90;99.90;;;;;;5008520;28;20069;-75
2022/03/07 03:41:20;;;;;;;2.05;0.50;;;26.40;99.90;;;;;;5009597;28;20030;-74
2022/03/07 03:43:48;;;;;;;2.72;0.85;;;26.70;99.90;;;;;;5004531;28;20030;-75
2022/03/07 03:46:15;;;;;;;4.68;0.40;;;26.80;99.90;;;;;;5002623;28;20112;-75
2022/03/07 03:48:42;;;;;;;0.52;0.40;;;27.00;99.90;;;;;;5009216;28;20022;-74
2022/03/07 03:51:10;;;;;;;3.28;0.63;;;27.30;99.90;;;;;;5007122;28;20075;-73
2022/03/07 03:53:37;;;;;;;1.75;0.50;;;27.80;99.90;;;;;;5009459;28;20088;-74
2022/03/07 03:56:05;;;;;;;2.10;0.65;;;28.20;99.90;;;;;;5007134;28;20038;-73
2022/03/07 03:58:32;;;;;;;3.35;0.60;;;28.70;99.90;;;;;;5010003;28;20434;-73
2022/03/07 04:00:59;;;;;;;0.80;0.40;;;29.00;99.90;;;;;;5008320;28;20026;-73
2022/03/07 04:03:27;;;;;;;0.75;0.45;;;29.10;99.90;;;;;;5009730;28;20064;-73
2022/03/07 04:05:54;;;;;;;1.92;0.40;;;28.90;99.90;;;;;;5001024;28;20334;-73
2022/03/07 04:08:22;;;;;;;4.93;0.95;;;28.60;99.90;;;;;;5004412;28;20026;-74
2022/03/07 04:10:49;;;;;;;1.95;0.50;;;28.10;99.90;;;;;;5004316;28;20436;-74
2022/03/07 04:13:16;;;;;;;1.63;0.50;;;27.70;99.90;;;;;;5001499;28;20021;-75
2022/03/07 04:15:44;;;;;;;2.60;0.40;;;27.40;99.90;;;;;;5006453;28;20100;-75
2022/03/07 04:18:11;;;;;;;3.00;0.60;;;27.10;99.90;;;;;;5009420;28;20413;-74
2022/03/07 04:20:38;;;;;;;5.57;0.70;;;26.80;99.90;;;;;;5004437;28;20046;-75
2022/03/07 04:23:06;;;;;;;4.28;0.98;;;26.50;99.90;;;;;;5009893;28;20026;-74
2022/03/07 04:25:33;;;;;;;2.78;0.52;;;26.30;99.90;;;;;;5005648;28;20096;-73
2022/03/07 04:28:01;;;;;;;4.63;1.75;;;26.30;99.90;;;;;;5008816;28;20124;-74
2022/03/07 04:30:29;;;;;;;2.65;1.15;;;26.40;99.90;;;;;;5006085;28;20089;-74
2022/03/07 04:32:56;;;;;;;3.05;0.60;;;26.50;99.90;;;;;;5007724;28;20030;-75
2022/03/07 04:35:23;;;;;;;4.30;0.60;;;26.50;99.90;;;;;;5006820;28;20049;-74
2022/03/07 04:37:50;;;;;;;3.45;0.70;;;26.70;99.90;;;;;;4992066;28;20018;-72
2022/03/07 04:40:18;;;;;;;3.72;0.65;;;26.90;99.90;;;;;;5001272;28;20049;-75
2022/03/07 04:42:46;;;;;;;2.13;0.75;;;27.40;99.90;;;;;;5008796;28;20026;-75
2022/03/07 04:45:14;;;;;;;3.22;0.50;;;27.90;99.90;;;;;;5009076;28;20030;-74
2022/03/07 04:47:42;;;;;;;2.53;0.45;;;28.10;99.90;;;;;;5008231;28;20104;-74
2022/03/07 04:50:11;;;;;;;1.33;0.50;;;28.00;99.90;;;;;;5009608;28;20025;-74
2022/03/07 04:52:39;;;;;;;1.88;0.40;;;27.90;99.90;;;;;;5006291;28;20037;-74
2022/03/07 04:55:07;;;;;;;0.70;0.30;;;27.70;99.90;;;;;;5007191;28;20037;-74
2022/03/07 04:57:35;;;;;;;1.55;0.45;;;27.40;99.90;;;;;;5006339;28;20034;-75
2022/03/07 05:00:04;;;;;;;1.25;0.35;;;27.20;99.90;;;;;;4992626;28;20044;-74
2022/03/07 05:02:32;;;;;;;5.43;0.63;;;27.00;99.90;;;;;;5010160;28;20030;-73
2022/03/07 05:04:59;;;;;;;4.63;1.15;;;26.80;99.90;;;;;;5009783;28;20561;-73
2022/03/07 05:07:26;;;;;;;4.93;0.63;;;26.70;99.90;;;;;;5011143;28;20056;-73
2022/03/07 05:09:54;;;;;;;3.70;0.70;;;26.70;99.90;;;;;;5008898;28;20136;-74
2022/03/07 05:12:21;;;;;;;3.42;0.90;;;26.70;99.90;;;;;;5009284;28;20022;-72
2022/03/07 05:14:48;;;;;;;7.55;1.15;;;26.90;99.90;;;;;;5011851;28;20029;-75
2022/03/07 05:17:15;;;;;;;5.50;0.60;;;27.30;99.90;;;;;;5010576;28;20519;-74
2022/03/07 05:19:45;;;;;;;3.30;1.25;;;27.80;99.90;;;;;;5011581;28;20065;-74
2022/03/07 05:22:12;;;;;;;3.65;1.02;;;28.10;99.90;;;;;;5010151;28;20497;-74
2022/03/07 05:24:39;;;;;;;3.80;1.60;;;28.20;99.90;;;;;;5022708;28;20039;-74
2022/03/07 05:27:08;;;;;;;2.67;0.60;;;28.10;99.90;;;;;;4999576;28;20061;-72
2022/03/07 05:29:36;;;;;;;8.38;1.23;;;27.80;99.90;;;;;;4997919;28;20034;-74
2022/03/07 05:32:04;;;;;;;2.60;0.82;;;27.50;99.90;;;;;;5006093;28;20058;-72
2022/03/07 05:34:31;;;;;;;5.72;0.75;;;27.10;99.90;;;;;;5006841;28;20144;-72
2022/03/07 05:36:59;;;;;;;2.58;0.50;;;26.80;99.90;;;;;;5004812;28;20014;-72
2022/03/07 05:39:26;;;;;;;1.58;0.38;;;26.50;99.90;;;;;;5010487;28;20041;-72
2022/03/07 05:41:53;;;;;;;1.38;0.40;;;26.30;99.90;;;;;;5004424;28;20405;-77
2022/03/07 05:44:21;;;;;;;2.13;0.75;;;26.10;99.90;;;;;;5002759;28;20025;-76
2022/03/07 05:46:48;;;;;;;2.95;1.00;;;25.80;99.90;;;;;;5001970;28;20026;-74
2022/03/07 05:49:15;;;;;;;3.05;0.55;;;25.60;99.90;;;;;;4998888;28;20122;-74
2022/03/07 05:51:44;;;;;;;2.58;0.65;;;25.50;99.90;;;;;;5008647;28;20021;-74
2022/03/07 05:54:11;;;;;;;1.30;0.50;;;25.30;99.90;;;;;;5011101;28;20038;-75
2022/03/07 05:56:39;;;;;;;1.65;0.63;;;25.20;99.90;;;;;;5010123;28;20065;-74
2022/03/07 05:59:06;;;;;;;1.45;0.70;;;25.10;99.90;;;;;;5002348;28;20055;-71
2022/03/07 06:01:33;;;;;;;0.98;0.77;;;25.10;99.90;;;;;;4995644;28;20050;-72
2022/03/07 06:04:01;;;;;;;1.88;0.50;;;25.20;99.90;;;;;;5006942;28;20018;-73
2022/03/07 06:06:28;;;;;;;1.50;0.52;;;25.30;99.90;;;;;;5009463;28;20766;-72
2022/03/07 06:08:59;;;;;;;1.88;0.38;;;25.40;99.90;;;;;;5011687;28;20028;-73
2022/03/07 06:11:26;;;;;;;1.23;0.85;;;25.40;99.90;;;;;;5006998;28;20049;-73
2022/03/07 06:13:53;;;;;;;4.63;1.05;;;25.30;99.90;;;;;;5008472;28;20026;-74
2022/03/07 06:16:21;;;;;;;2.50;0.45;;;25.30;99.90;;;;;;5000703;28;20022;-72
2022/03/07 06:18:49;;;;;;;1.55;0.20;;;25.20;99.90;;;;;;5009727;28;20066;-72
2022/03/07 06:21:16;;;;;;;0.40;0.30;;;25.20;99.90;;;;;;5003269;28;20026;-73
2022/03/07 06:23:43;;;;;;;0.20;0.20;;;25.10;99.90;;;;;;5008667;28;20436;-73
2022/03/07 06:26:11;;;;;;;3.70;1.13;;;25.00;99.90;;;;;;5000487;28;20026;-72
2022/03/07 06:28:38;;;;;;;1.10;0.20;;;25.00;99.90;;;;;;5001931;28;20442;-72
2022/03/07 06:31:06;;;;;;;2.53;0.50;;;25.00;99.90;;;;;;5010462;28;20026;-72
2022/03/07 06:33:33;;;;;;;0.43;0.20;;;25.00;99.90;;;;;;5005655;28;20041;-71
2022/03/07 06:36:00;;;;;;;1.70;0.35;;;25.00;99.90;;;;;;5006451;28;20065;-72
2022/03/07 06:38:28;;;;;;;0.75;0.20;;;24.90;99.90;;;;;;5008663;28;20045;-72
2022/03/07 06:40:56;;;;;;;0.40;0.15;;;24.90;99.90;;;;;;5008402;28;20029;-72
2022/03/07 06:43:23;;;;;;;0.38;0.10;;;24.90;99.90;;;;;;5002019;28;20081;-72
2022/03/07 06:45:52;;;;;;;1.38;0.17;;;24.80;99.90;;;;;;5008153;28;20456;-72
2022/03/07 06:48:19;;;;;;;1.55;0.28;;;24.80;99.90;;;;;;5011541;28;20033;-73
2022/03/07 06:50:47;;;;;;;1.42;0.13;;;24.80;99.90;;;;;;5009876;28;20400;-73
2022/03/07 06:53:15;;;;;;;0.30;0.22;;;24.80;99.90;;;;;;5010580;28;20482;-74
2022/03/07 06:55:42;;;;;;;0.57;0.20;;;24.70;99.90;;;;;;5006860;28;20452;-75
2022/03/07 06:58:09;;;;;;;1.20;0.22;;;24.70;99.90;;;;;;5009844;28;20022;-74
2022/03/07 07:00:37;;;;;;;3.08;0.17;;;24.70;99.90;;;;;;5008577;28;20092;-73
2022/03/07 07:03:05;;;;;;;0.38;0.20;;;24.60;99.90;;;;;;5010614;28;20022;-71
2022/03/07 07:05:32;;;;;;;3.13;0.38;;;24.50;99.90;;;;;;5003164;28;20235;-73
2022/03/07 07:08:00;;;;;;;0.80;0.43;;;24.40;99.90;;;;;;5003244;28;20119;-74
2022/03/07 07:10:31;;;;;;;1.13;0.38;;;24.30;99.90;;;;;;5003433;28;20045;-72
2022/03/07 07:12:58;;;;;;;0.98;0.20;;;24.20;99.90;;;;;;4996138;28;20108;-72
2022/03/07 07:15:25;;;;;;;1.15;0.20;;;24.20;99.90;;;;;;5005207;28;20453;-72
2022/03/07 07:17:53;;;;;;;0.50;0.20;;;24.10;99.90;;;;;;5004513;28;20033;-72
2022/03/07 07:20:20;;;;;;;1.08;0.22;;;24.10;99.90;;;;;;5009628;28;20128;-73
2022/03/07 07:22:47;;;;;;;0.45;0.20;;;24.10;99.90;;;;;;5003516;28;20037;-73
2022/03/07 07:25:15;;;;;;;2.50;0.40;;;24.10;99.90;;;;;;5009331;28;20064;-71
2022/03/07 07:27:42;;;;;;;1.63;0.30;;;24.10;99.90;;;;;;5000818;28;20029;-73
2022/03/07 07:30:10;;;;;;;0.70;0.30;;;24.00;99.90;;;;;;5002453;28;20424;-72
2022/03/07 07:32:41;;;;;;;0.73;0.40;;;24.00;99.90;;;;;;5002660;28;20044;-72
2022/03/07 07:35:10;;;;;;;1.08;0.40;;;24.00;99.90;;;;;;5004183;28;20018;-72
2022/03/07 07:37:37;;;;;;;2.10;0.28;;;23.90;99.90;;;;;;5003057;28;20100;-71
2022/03/07 07:40:07;;;;;;;0.80;0.30;;;23.90;99.90;;;;;;5007820;28;20034;-71
2022/03/07 07:42:35;;;;;;;0.45;0.30;;;23.80;99.90;;;;;;5006204;28;20208;-71
2022/03/07 07:45:03;;;;;;;1.67;0.55;;;23.80;99.90;;;;;;5003207;28;20022;-72
2022/03/07 07:47:30;;;;;;;3.85;0.45;;;23.80;99.90;;;;;;5006920;28;20033;-72
2022/03/07 07:49:57;;;;;;;6.47;0.95;;;23.90;99.90;;;;;;5002172;28;20031;-72
2022/03/07 07:52:25;;;;;;;5.18;0.68;;;23.80;99.90;;;;;;5001197;28;20496;-72
2022/03/07 07:54:52;;;;;;;5.53;0.75;;;23.90;99.90;;;;;;5001219;28;20425;-72
2022/03/07 07:57:19;;;;;;;4.65;0.60;;;24.00;99.90;;;;;;5006319;28;20045;-72
2022/03/07 07:59:47;;;;;;;5.63;0.95;;;24.00;99.90;;;;;;5010009;28;20042;-72
2022/03/07 08:02:14;;;;;;;7.57;1.10;;;24.00;99.90;;;;;;5004909;28;20026;-72
2022/03/07 08:04:41;;;;;;;10.85;2.00;;;24.10;99.90;;;;;;5005386;28;20061;-72
2022/03/07 08:07:09;;;;;;;9.52;1.55;;;24.20;99.90;;;;;;5005006;28;20030;-72
2022/03/07 08:09:36;;;;;;;6.05;1.38;;;24.20;99.90;;;;;;5007262;28;20433;-72
2022/03/07 08:12:04;;;;;;;7.65;2.08;;;24.20;99.90;;;;;;5006266;28;20499;-71
2022/03/07 08:14:31;;;;;;;7.28;1.77;;;24.20;99.90;;;;;;5005614;28;20042;-73
2022/03/07 08:16:59;;;;;;;12.18;1.80;;;24.20;99.90;;;;;;5004669;28;20030;-71
2022/03/07 08:19:26;;;;;;;7.72;1.95;;;24.20;99.90;;;;;;5005850;28;20185;-71
2022/03/07 08:21:54;;;;;;;3.42;1.08;;;24.20;99.90;;;;;;5004746;28;20385;-71
2022/03/07 08:24:21;;;;;;;5.07;1.13;;;24.20;99.90;;;;;;5001631;28;20468;-71
2022/03/07 08:26:48;;;;;;;5.05;0.70;;;24.20;99.90;;;;;;5005386;28;20038;-70
2022/03/07 08:29:16;;;;;;;7.32;1.08;;;24.10;99.90;;;;;;5008337;28;20364;-70
2022/03/07 08:31:43;;;;;;;6.20;1.27;;;24.10;99.90;;;;;;5000609;28;20077;-71
2022/03/07 08:34:10;;;;;;;2.53;0.60;;;24.00;99.90;;;;;;5004308;28;20107;-71
2022/03/07 08:36:38;;;;;;;6.20;1.63;;;23.90;99.90;;;;;;5003340;28;20044;-73
2022/03/07 08:39:05;;;;;;;4.20;0.80;;;23.90;99.90;;;;;;5000563;28;20109;-72
2022/03/07 08:41:34;;;;;;;4.50;0.77;;;23.90;99.90;;;;;;5001321;28;20071;-71
2022/03/07 08:44:02;;;;;;;3.30;1.75;;;23.80;99.90;;;;;;5002597;28;20030;-73
2022/03/07 08:46:30;;;;;;;5.13;1.10;;;23.80;99.90;;;;;;5010283;28;20040;-71
2022/03/07 08:48:57;;;;;;;7.50;1.10;;;23.80;99.90;;;;;;5011377;28;20068;-73
2022/03/07 08:51:24;;;;;;;5.03;1.00;;;23.70;99.90;;;;;;5010593;28;20030;-73
2022/03/07 08:53:52;;;;;;;6.03;0.90;;;23.70;99.90;;;;;;5011205;28;20030;-73
2022/03/07 08:56:19;;;;;;;6.13;1.08;;;23.70;99.90;;;;;;5004420;28;20056;-72
2022/03/07 08:58:46;;;;;;;3.08;0.88;;;23.70;99.90;;;;;;4998991;28;20529;-75
2022/03/07 09:01:16;;;;;;;4.78;1.30;;;23.70;99.90;;;;;;4999133;28;20038;-71
2022/03/07 09:03:43;;;;;;;3.25;0.73;;;23.70;99.90;;;;;;5006173;28;20437;-74
2022/03/07 09:06:11;;;;;;;5.18;1.40;;;23.70;99.90;;;;;;5009662;28;20437;-74
2022/03/07 09:08:38;;;;;;;3.80;0.82;;;23.70;99.90;;;;;;5011911;28;20037;-74
2022/03/07 09:11:06;;;;;;;2.67;0.50;;;23.60;99.90;;;;;;5009831;28;20037;-76
2022/03/07 09:13:33;;;;;;;4.47;0.60;;;23.70;99.90;;;;;;5009684;28;20030;-74
2022/03/07 09:16:00;;;;;;;5.90;1.30;;;23.70;99.90;;;;;;5009119;28;20108;-74
2022/03/07 09:18:28;;;;;;;4.68;0.60;;;23.70;99.90;;;;;;5011743;28;20033;-74
2022/03/07 09:20:56;;;;;;;4.07;1.20;;;23.70;99.90;;;;;;5008616;28;20080;-75
2022/03/07 09:23:25;;;;;;;4.40;0.68;;;23.60;99.90;;;;;;5004558;28;20044;-73
2022/03/07 09:25:52;;;;;;;3.00;1.35;;;23.70;99.90;;;;;;5000977;28;20033;-73
2022/03/07 09:28:19;;;;;;;2.25;0.77;;;23.70;99.90;;;;;;5010378;28;20036;-76
2022/03/07 09:30:47;;;;;;;3.95;1.15;;;23.70;99.90;;;;;;5009251;28;20026;-75
2022/03/07 09:33:14;;;;;;;6.05;1.30;;;23.70;99.90;;;;;;5012340;28;20080;-75
2022/03/07 09:35:41;;;;;;;3.63;0.80;;;23.70;99.90;;;;;;5002596;28;20121;-76
2022/03/07 09:38:09;;;;;;;1.67;0.60;;;23.60;99.90;;;;;;5002931;28;20018;-73
2022/03/07 09:40:36;;;;;;;5.95;1.02;;;23.60;99.90;;;;;;5006372;28;20086;-74
2022/03/07 09:43:04;;;;;;;2.65;0.90;;;23.60;99.90;;;;;;5010462;28;20032;-74
2022/03/07 09:45:31;;;;;;;5.30;1.67;;;23.60;99.90;;;;;;5001781;28;20053;-75
2022/03/07 09:48:00;;;;;;;2.55;1.00;;;23.50;99.90;;;;;;5001075;28;20152;-75
2022/03/07 09:50:27;;;;;;;2.25;0.73;;;23.50;99.90;;;;;;5004815;28;20058;-74
2022/03/07 09:52:55;;;;;;;0.80;0.45;;;23.50;99.90;;;;;;5001488;28;20038;-72
2022/03/07 09:55:25;;;;;;;4.00;0.73;;;23.40;99.90;;;;;;5003578;28;20057;-73
2022/03/07 09:57:52;;;;;;;4.57;0.60;;;23.30;99.90;;;;;;5002452;28;20057;-75
2022/03/07 10:00:20;;;;;;;8.95;0.68;;;23.30;99.90;;;;;;4999792;28;20595;-71
2022/03/07 10:03:09;;;;;;;4.07;0.82;;;23.20;99.90;;;;;;5003686;28;20089;-73
2022/03/07 10:05:40;;;;;;;6.15;1.65;;;23.20;99.90;;;;;;5004783;28;20044;-76
2022/03/07 10:08:09;;;;;;;1.63;0.90;;;23.10;99.90;;;;;;5005697;28;20408;-75
2022/03/07 10:10:42;;;;;;;1.95;0.85;;;23.10;99.90;;;;;;5008607;28;20421;-71
2022/03/07 10:13:14;;;;;;;3.88;0.80;;;23.10;99.90;;;;;;5003417;28;20488;-74
2022/03/07 10:15:42;;;;;;;3.17;1.27;;;23.10;99.90;;;;;;4996462;28;20025;-74
2022/03/07 10:18:29;;;;;;;3.85;1.20;;;23.00;99.90;;;;;;5003106;28;20201;-72
2022/03/07 10:21:00;;;;;;;6.07;0.82;;;23.00;99.90;;;;;;5000346;28;20568;-74
2022/03/07 10:23:28;;;;;;;2.92;0.90;;;23.00;99.90;;;;;;5002766;28;20022;-72
2022/03/07 10:26:09;;;;;;;2.45;0.60;;;23.00;99.90;;;;;;5003470;28;20035;-74
2022/03/07 10:28:38;;;;;;;5.00;0.43;;;23.00;99.90;;;;;;5008290;28;20030;-74
2022/03/07 10:31:19;;;;;;;1.08;0.40;;;22.90;99.90;;;;;;5007509;28;20117;-73
2022/03/07 10:33:47;;;;;;;1.73;0.85;;;22.90;99.90;;;;;;5002580;28;20057;-71
2022/03/07 10:36:14;;;;;;;0.90;0.50;;;22.90;99.90;;;;;;5002213;28;20044;-74
2022/03/07 10:38:44;;;;;;;1.27;0.35;;;22.90;99.90;;;;;;5003133;28;20424;-72
2022/03/07 10:41:12;;;;;;;4.40;0.52;;;22.90;99.90;;;;;;5001044;28;20396;-74
2022/03/07 10:43:49;;;;;;;2.20;0.30;;;22.80;99.90;;;;;;5005219;28;20018;-73
2022/03/07 10:46:26;;;;;;;4.03;0.95;;;22.80;99.90;;;;;;5000357;28;20057;-72
2022/03/07 10:48:54;;;;;;;1.15;0.35;;;22.80;99.90;;;;;;5002454;28;20021;-72
2022/03/07 10:51:21;;;;;;;1.58;0.60;;;22.70;99.90;;;;;;4999399;28;20128;-75
2022/03/07 10:53:49;;;;;;;0.88;0.30;;;22.70;99.90;;;;;;5001525;28;20053;-76
2022/03/07 10:56:17;;;;;;;1.70;0.20;;;22.60;99.90;;;;;;5000254;28;20382;-75
2022/03/07 10:58:53;;;;;;;0.10;0.10;;;22.60;99.90;;;;;;5001944;28;20037;-74
2022/03/07 11:01:34;;;;;;;0.82;0.30;;;22.50;99.90;;;;;;5004343;28;20038;-73
2022/03/07 11:04:02;;;;;;;0.20;0.10;;;22.50;99.90;;;;;;5003948;28;20045;-75
2022/03/07 11:06:30;;;;;;;6.32;0.43;;;22.50;99.90;;;;;;5001661;28;20049;-76
2022/03/07 11:08:57;;;;;;;1.70;0.65;;;22.50;99.90;;;;;;5003837;28;20472;-72
2022/03/07 11:11:24;;;;;;;2.50;0.40;;;22.50;99.90;;;;;;5010393;28;20033;-74
2022/03/07 11:13:56;;;;;;;0.57;0.30;;;22.50;99.90;;;;;;5002843;28;20042;-73
2022/03/07 11:16:28;;;;;;;1.00;0.20;;;22.50;99.90;;;;;;5001594;28;20140;-73
2022/03/07 11:18:56;;;;;;;0.95;0.40;;;22.50;99.90;;;;;;5008667;28;20029;-74
2022/03/07 11:21:25;;;;;;;0.75;0.38;;;22.50;99.90;;;;;;5011919;28;20026;-75
2022/03/07 11:23:52;;;;;;;2.83;0.20;;;22.50;99.90;;;;;;5008609;28;20121;-75
2022/03/07 11:26:23;;;;;;;2.15;0.20;;;22.50;99.90;;;;;;5004196;28;20104;-73
2022/03/07 11:28:51;;;;;;;0.32;0.10;;;22.40;99.90;;;;;;5007847;28;20036;-75
2022/03/07 11:31:23;;;;;;;0.10;0.10;;;22.40;99.90;;;;;;4997402;28;20829;-75
2022/03/07 11:33:52;;;;;;;0.95;0.20;;;22.50;99.90;;;;;;4997601;28;20033;-74
2022/03/07 11:36:21;;;;;;;0.73;0.17;;;22.50;99.90;;;;;;5006420;28;21353;-74
2022/03/07 11:38:57;;;;;;;0.28;0.20;;;22.50;99.90;;;;;;5011357;28;20044;-72
2022/03/07 11:41:33;;;;;;;0.88;0.32;;;22.50;99.90;;;;;;5008552;28;20041;-75
2022/03/07 11:44:13;;;;;;;0.88;0.50;;;22.50;99.90;;;;;;5009650;28;20145;-76
2022/03/07 11:46:51;;;;;;;0.90;0.75;;;22.50;99.90;;;;;;5005282;28;20033;-76
2022/03/07 11:49:31;;;;;;;0.95;0.45;;;22.40;99.90;;;;;;5009975;28;20076;-76
2022/03/07 11:52:01;;;;;;;2.92;0.10;;;22.40;99.90;;;;;;5007162;28;20682;-75
2022/03/07 11:54:29;;;;;;;0.05;0.05;;;22.40;99.90;;;;;;5015914;28;20065;-77
2022/03/07 11:57:10;;;;;;;0.43;0.10;;;22.30;99.90;;;;;;5006218;28;20044;-76
2022/03/07 11:59:38;;;;;;;1.88;0.30;;;22.30;99.90;;;;;;5008818;28;20037;-74
2022/03/07 12:02:06;;;;;;;0.20;0.10;;;22.30;99.90;;;;;;5006624;28;20034;-72
2022/03/07 12:04:46;;;;;;;1.20;0.20;;;22.30;99.90;;;;;;5006665;28;20022;-75
2022/03/07 12:07:24;;;;;;;0.10;0.10;;;22.30;99.90;;;;;;5005156;28;20109;-76
2022/03/07 12:09:51;;;;;;;1.27;0.13;;;22.30;99.90;;;;;;5009226;28;20508;-75
2022/03/07 12:12:22;;;;;;;0.50;0.10;;;22.30;99.90;;;;;;5008419;28;20038;-75
2022/03/07 12:14:49;;;;;;;0.47;0.20;;;22.30;99.90;;;;;;5007066;28;20053;-76
2022/03/07 12:17:26;;;;;;;0.47;0.43;;;22.30;99.90;;;;;;5004801;28;20041;-79
2022/03/07 12:19:58;;;;;;;0.38;0.10;;;22.30;99.90;;;;;;5012162;28;20057;-78
2022/03/07 12:22:31;;;;;;;0.80;0.17;;;22.20;99.90;;;;;;5004995;28;20031;-80
2022/03/07 12:25:00;;;;;;;1.50;0.28;;;22.20;99.90;;;;;;4999442;28;20033;-80
2022/03/07 12:27:27;;;;;;;0.65;0.05;;;22.20;99.90;;;;;;5010165;28;20431;-79
2022/03/07 12:29:55;;;;;;;1.20;0.20;;;22.20;99.90;;;;;;5011327;28;20033;-78
2022/03/07 12:32:22;;;;;;;1.30;0.17;;;22.10;99.90;;;;;;5006366;28;20038;-74
2022/03/07 12:34:50;;;;;;;2.92;0.85;;;22.10;99.90;;;;;;4998074;28;20368;-74
2022/03/07 12:37:21;;;;;;;0.82;0.35;;;22.10;99.90;;;;;;5002572;28;20034;-76
2022/03/07 12:39:56;;;;;;;0.17;0.10;;;22.10;99.90;;;;;;5000889;28;20046;-78
2022/03/07 12:42:26;;;;;;;1.77;0.30;;;22.10;99.90;;;;;;5004528;28;20576;-76
2022/03/07 12:44:54;;;;;;;0.30;0.15;;;22.10;99.90;;;;;;5010876;28;20496;-76
2022/03/07 12:47:38;;;;;;;0.50;0.28;;;22.00;99.90;;;;;;5005700;28;20126;-78
2022/03/07 12:50:10;;;;;;;1.42;0.22;;;22.00;99.90;;;;;;5005757;28;20568;-77
2022/03/07 12:52:39;;;;;;;0.17;0.10;;;22.00;99.90;;;;;;5009706;28;20142;-78